Main page
METAR-TAF:

METAR-TAF

Airports :

RAF Marham

Marham, England

latitude: 52-39N, longitude: 000-34E, elevation: 23 m

Current weather observation

The report was made 48 minutes ago, at 19:50 UTC
Wind 5 kt from the East/Southeast
Temperature 15°C
Humidity 51%
Pressure 1029 hPa
Visibility 10 km or more

METAR: EGYM 221950Z AUTO 12005KT 9999 NCD 15/05 Q1029

Time: 21:38 (20:38 UTC)

Forecast

The report was made 8 hours and 6 minutes ago, at 12:32 UTC
Forecast valid from 22 at 15 UTC to 22 at 21 UTC
Wind 14 kt from the North
Visibility 10 km or more
no clouds below 1500 m and no cumulonimbus

TAF: EGYM 221232Z 2215/2221 35014KT CAVOK

Weather observations and forecasts of more than 4000 airports (METAR and TAF reports).

The available stations are represented by yellow and red dots on the map.

Hover mouse over dot to see the name of the station.

Then click to see weather observations and forecasts.

To change the map : click on the green buttons with a black cross to zoom in, on the green button with a dash to zoom out, or on the green arrows for adjacent maps.


METAR-TAF: